sensor_id;sensor_type;location;lat;lon;timestamp;pressure;altitude;pressure_sealevel;temperature;humidity
65359;BME280;52491;45.900;6.346;2022-10-29T00:01:19;94763.91;;;25.68;40.23
65359;BME280;52491;45.900;6.346;2022-10-29T00:03:44;94772.47;;;25.71;40.10
65359;BME280;52491;45.900;6.346;2022-10-29T00:06:12;94771.97;;;25.74;40.25
65359;BME280;52491;45.900;6.346;2022-10-29T00:08:39;94761.28;;;25.74;39.93
65359;BME280;52491;45.900;6.346;2022-10-29T00:11:11;94762.13;;;25.74;40.28
65359;BME280;52491;45.900;6.346;2022-10-29T00:13:37;94759.69;;;25.73;39.77
65359;BME280;52491;45.900;6.346;2022-10-29T00:16:05;94762.34;;;25.73;40.00
65359;BME280;52491;45.900;6.346;2022-10-29T00:18:30;94758.06;;;25.72;39.84
65359;BME280;52491;45.900;6.346;2022-10-29T00:21:01;94759.69;;;25.73;40.04
65359;BME280;52491;45.900;6.346;2022-10-29T00:23:26;94754.59;;;25.71;39.93
65359;BME280;52491;45.900;6.346;2022-10-29T00:25:58;94763.66;;;25.70;40.00
65359;BME280;52491;45.900;6.346;2022-10-29T00:28:25;94751.09;;;25.71;39.85
65359;BME280;52491;45.900;6.346;2022-10-29T00:30:50;94761.53;;;25.72;39.77
65359;BME280;52491;45.900;6.346;2022-10-29T00:33:16;94754.91;;;25.75;40.04
65359;BME280;52491;45.900;6.346;2022-10-29T00:35:53;94757.31;;;25.76;39.79
65359;BME280;52491;45.900;6.346;2022-10-29T00:38:19;94752.53;;;25.78;39.48
65359;BME280;52491;45.900;6.346;2022-10-29T00:40:45;94749.28;;;25.76;39.82
65359;BME280;52491;45.900;6.346;2022-10-29T00:43:12;94754.63;;;25.76;39.83
65359;BME280;52491;45.900;6.346;2022-10-29T00:45:43;94750.13;;;25.77;39.74
65359;BME280;52491;45.900;6.346;2022-10-29T00:48:10;94747.44;;;25.77;39.74
65359;BME280;52491;45.900;6.346;2022-10-29T00:50:36;94749.28;;;25.76;39.48
65359;BME280;52491;45.900;6.346;2022-10-29T00:53:02;94737.31;;;25.79;39.68
65359;BME280;52491;45.900;6.346;2022-10-29T00:55:28;94742.91;;;25.77;39.60
65359;BME280;52491;45.900;6.346;2022-10-29T00:57:54;94739.44;;;25.77;39.40
65359;BME280;52491;45.900;6.346;2022-10-29T01:00:21;94739.44;;;25.77;39.29
65359;BME280;52491;45.900;6.346;2022-10-29T01:02:48;94737.56;;;25.77;39.37
65359;BME280;52491;45.900;6.346;2022-10-29T01:05:23;94733.28;;;25.76;39.46
65359;BME280;52491;45.900;6.346;2022-10-29T01:07:50;94725.25;;;25.76;39.69
65359;BME280;52491;45.900;6.346;2022-10-29T01:10:16;94728.44;;;25.73;39.20
65359;BME280;52491;45.900;6.346;2022-10-29T01:15:39;94723.66;;;25.75;39.59
65359;BME280;52491;45.900;6.346;2022-10-29T01:18:12;94717.50;;;25.75;39.24
65359;BME280;52491;45.900;6.346;2022-10-29T01:23:44;94719.63;;;25.73;39.10
65359;BME280;52491;45.900;6.346;2022-10-29T01:34:36;94703.28;;;25.69;39.22
65359;BME280;52491;45.900;6.346;2022-10-29T01:40:03;94703.78;;;25.66;39.23
65359;BME280;52491;45.900;6.346;2022-10-29T01:42:36;94698.69;;;25.64;39.23
65359;BME280;52491;45.900;6.346;2022-10-29T01:45:24;94699.50;;;25.65;39.22
65359;BME280;52491;45.900;6.346;2022-10-29T01:47:54;94690.94;;;25.63;39.38
65359;BME280;52491;45.900;6.346;2022-10-29T01:50:22;94681.81;;;25.59;39.56
65359;BME280;52491;45.900;6.346;2022-10-29T01:52:50;94693.84;;;25.61;39.48
65359;BME280;52491;45.900;6.346;2022-10-29T01:55:22;94688.22;;;25.58;39.34
65359;BME280;52491;45.900;6.346;2022-10-29T01:57:53;94681.75;;;25.54;39.34
65359;BME280;52491;45.900;6.346;2022-10-29T02:00:19;94678.28;;;25.53;39.28
65359;BME280;52491;45.900;6.346;2022-10-29T02:06:18;94677.53;;;25.58;39.44
65359;BME280;52491;45.900;6.346;2022-10-29T02:14:42;94682.06;;;25.57;39.31
65359;BME280;52491;45.900;6.346;2022-10-29T02:17:10;94671.41;;;25.57;39.29
65359;BME280;52491;45.900;6.346;2022-10-29T02:19:36;94673.50;;;25.55;39.04
65359;BME280;52491;45.900;6.346;2022-10-29T02:22:02;94672.13;;;25.53;38.91
65359;BME280;52491;45.900;6.346;2022-10-29T02:24:27;94667.31;;;25.50;39.00
65359;BME280;52491;45.900;6.346;2022-10-29T02:26:53;94665.72;;;25.54;39.42
65359;BME280;52491;45.900;6.346;2022-10-29T02:29:18;94667.03;;;25.51;39.17
65359;BME280;52491;45.900;6.346;2022-10-29T02:31:44;94669.97;;;25.50;39.43
65359;BME280;52491;45.900;6.346;2022-10-29T02:34:10;94660.09;;;25.50;39.21
65359;BME280;52491;45.900;6.346;2022-10-29T02:36:35;94656.84;;;25.48;39.17
65359;BME280;52491;45.900;6.346;2022-10-29T02:39:01;94652.81;;;25.45;39.28
65359;BME280;52491;45.900;6.346;2022-10-29T02:41:26;94652.59;;;25.47;39.07
65359;BME280;52491;45.900;6.346;2022-10-29T02:43:52;94646.19;;;25.48;38.85
65359;BME280;52491;45.900;6.346;2022-10-29T02:46:21;94645.13;;;25.49;39.20
65359;BME280;52491;45.900;6.346;2022-10-29T02:48:47;94647.81;;;25.49;39.27
65359;BME280;52491;45.900;6.346;2022-10-29T02:51:14;94637.94;;;25.50;38.93
65359;BME280;52491;45.900;6.346;2022-10-29T02:53:40;94648.63;;;25.50;39.14
65359;BME280;52491;45.900;6.346;2022-10-29T02:56:06;94646.75;;;25.50;39.02
65359;BME280;52491;45.900;6.346;2022-10-29T02:58:32;94637.13;;;25.49;39.19
65359;BME280;52491;45.900;6.346;2022-10-29T03:00:58;94635.25;;;25.50;38.70
65359;BME280;52491;45.900;6.346;2022-10-29T03:03:23;94631.78;;;25.49;38.71
65359;BME280;52491;45.900;6.346;2022-10-29T03:05:49;94629.13;;;25.49;39.27
65359;BME280;52491;45.900;6.346;2022-10-29T03:08:15;94633.38;;;25.50;39.18
65359;BME280;52491;45.900;6.346;2022-10-29T03:10:41;94624.59;;;25.50;39.12
65359;BME280;52491;45.900;6.346;2022-10-29T03:13:07;94626.44;;;25.49;38.96
65359;BME280;52491;45.900;6.346;2022-10-29T03:15:32;94638.97;;;25.49;39.18
65359;BME280;52491;45.900;6.346;2022-10-29T03:17:58;94624.03;;;25.48;39.20
65359;BME280;52491;45.900;6.346;2022-10-29T03:20:23;94628.06;;;25.50;38.68
65359;BME280;52491;45.900;6.346;2022-10-29T03:22:49;94632.59;;;25.50;39.09
65359;BME280;52491;45.900;6.346;2022-10-29T03:25:15;94621.91;;;25.50;38.67
65359;BME280;52491;45.900;6.346;2022-10-29T03:27:43;94629.34;;;25.48;39.15
65359;BME280;52491;45.900;6.346;2022-10-29T03:30:11;94630.44;;;25.47;39.20
65359;BME280;52491;45.900;6.346;2022-10-29T03:32:41;94632.28;;;25.46;39.28
65359;BME280;52491;45.900;6.346;2022-10-29T03:35:08;94628.78;;;25.45;38.94
65359;BME280;52491;45.900;6.346;2022-10-29T03:37:34;94633.34;;;25.45;39.03
65359;BME280;52491;45.900;6.346;2022-10-29T03:39:59;94625.81;;;25.42;38.94
65359;BME280;52491;45.900;6.346;2022-10-29T03:42:25;94625.03;;;25.41;38.90
65359;BME280;52491;45.900;6.346;2022-10-29T03:44:51;94627.94;;;25.40;38.83
65359;BME280;52491;45.900;6.346;2022-10-29T03:47:16;94628.75;;;25.40;39.11
65359;BME280;52491;45.900;6.346;2022-10-29T03:49:42;94628.75;;;25.40;39.11
65359;BME280;52491;45.900;6.346;2022-10-29T03:52:07;94629.31;;;25.42;39.05
65359;BME280;52491;45.900;6.346;2022-10-29T03:54:33;94626.09;;;25.40;38.73
65359;BME280;52491;45.900;6.346;2022-10-29T03:56:58;94628.75;;;25.40;38.91
65359;BME280;52491;45.900;6.346;2022-10-29T03:59:24;94634.09;;;25.40;39.16
65359;BME280;52491;45.900;6.346;2022-10-29T04:01:50;94637.56;;;25.41;39.22
65359;BME280;52491;45.900;6.346;2022-10-29T04:04:15;94634.91;;;25.41;38.77
65359;BME280;52491;45.900;6.346;2022-10-29T04:06:41;94639.19;;;25.42;39.16
65359;BME280;52491;45.900;6.346;2022-10-29T04:09:06;94635.72;;;25.41;39.00
65359;BME280;52491;45.900;6.346;2022-10-29T04:11:32;94635.94;;;25.40;39.04
65359;BME280;52491;45.900;6.346;2022-10-29T04:13:57;94633.53;;;25.38;39.16
65359;BME280;52491;45.900;6.346;2022-10-29T04:16:23;94637.00;;;25.39;38.55
65359;BME280;52491;45.900;6.346;2022-10-29T04:18:49;94635.13;;;25.39;38.48
65359;BME280;52491;45.900;6.346;2022-10-29T04:21:15;94638.59;;;25.40;38.68
65359;BME280;52491;45.900;6.346;2022-10-29T04:23:41;94639.69;;;25.39;39.08
65359;BME280;52491;45.900;6.346;2022-10-29T04:26:07;94638.31;;;25.36;38.84
65359;BME280;52491;45.900;6.346;2022-10-29T04:28:33;94640.75;;;25.38;38.84
65359;BME280;52491;45.900;6.346;2022-10-29T04:31:10;94636.22;;;25.38;39.05
65359;BME280;52491;45.900;6.346;2022-10-29T04:33:36;94639.13;;;25.37;38.92
65359;BME280;52491;45.900;6.346;2022-10-29T04:36:02;94638.31;;;25.36;38.73
65359;BME280;52491;45.900;6.346;2022-10-29T04:38:28;94640.41;;;25.34;38.71
65359;BME280;52491;45.900;6.346;2022-10-29T04:40:58;94642.59;;;25.37;38.89
65359;BME280;52491;45.900;6.346;2022-10-29T04:43:24;94648.75;;;25.38;38.63
65359;BME280;52491;45.900;6.346;2022-10-29T04:45:51;94638.25;;;25.31;38.80
65359;BME280;52491;45.900;6.346;2022-10-29T04:48:17;94643.34;;;25.33;38.85
65359;BME280;52491;45.900;6.346;2022-10-29T04:50:43;94643.06;;;25.29;38.66
65359;BME280;52491;45.900;6.346;2022-10-29T04:53:09;94644.88;;;25.29;38.95
65359;BME280;52491;45.900;6.346;2022-10-29T04:55:36;94635.28;;;25.28;38.70
65359;BME280;52491;45.900;6.346;2022-10-29T04:58:03;94630.19;;;25.26;38.57
65359;BME280;52491;45.900;6.346;2022-10-29T05:00:29;94641.41;;;25.28;38.95
65359;BME280;52491;45.900;6.346;2022-10-29T05:02:54;94641.41;;;25.28;38.98
65359;BME280;52491;45.900;6.346;2022-10-29T05:05:20;94641.41;;;25.28;38.81
65359;BME280;52491;45.900;6.346;2022-10-29T05:07:46;94642.50;;;25.27;38.82
65359;BME280;52491;45.900;6.346;2022-10-29T05:10:12;94640.84;;;25.26;38.87
65359;BME280;52491;45.900;6.346;2022-10-29T05:12:38;94633.69;;;25.27;38.55
65359;BME280;52491;45.900;6.346;2022-10-29T05:15:04;94640.06;;;25.26;38.60
65359;BME280;52491;45.900;6.346;2022-10-29T05:17:30;94635.78;;;25.25;38.74
65359;BME280;52491;45.900;6.346;2022-10-29T05:19:56;94635.28;;;25.28;38.66
65359;BME280;52491;45.900;6.346;2022-10-29T05:22:21;94632.63;;;25.28;38.64
65359;BME280;52491;45.900;6.346;2022-10-29T05:24:47;94632.84;;;25.26;38.62
65359;BME280;52491;45.900;6.346;2022-10-29T05:27:13;94637.16;;;25.27;38.72
65359;BME280;52491;45.900;6.346;2022-10-29T05:29:39;94638.75;;;25.28;38.45
65359;BME280;52491;45.900;6.346;2022-10-29T05:32:04;94632.63;;;25.28;38.50
65359;BME280;52491;45.900;6.346;2022-10-29T05:34:30;94636.34;;;25.27;38.68
65359;BME280;52491;45.900;6.346;2022-10-29T05:36:55;94635.53;;;25.26;38.43
65359;BME280;52491;45.900;6.346;2022-10-29T05:39:21;94632.63;;;25.28;38.79
65359;BME280;52491;45.900;6.346;2022-10-29T05:41:46;94634.47;;;25.27;38.56
65359;BME280;52491;45.900;6.346;2022-10-29T05:44:12;94637.66;;;25.24;38.73
65359;BME280;52491;45.900;6.346;2022-10-29T05:46:38;94637.38;;;25.26;38.79
65359;BME280;52491;45.900;6.346;2022-10-29T05:49:03;94636.59;;;25.25;38.85
65359;BME280;52491;45.900;6.346;2022-10-29T05:51:29;94633.69;;;25.27;38.54
65359;BME280;52491;45.900;6.346;2022-10-29T05:53:54;94645.16;;;25.27;38.77
65359;BME280;52491;45.900;6.346;2022-10-29T05:56:20;94632.84;;;25.26;38.56
65359;BME280;52491;45.900;6.346;2022-10-29T05:58:49;94635.78;;;25.25;38.49
65359;BME280;52491;45.900;6.346;2022-10-29T06:01:15;94635.78;;;25.25;38.39
65359;BME280;52491;45.900;6.346;2022-10-29T06:03:44;94639.25;;;25.25;38.67
65359;BME280;52491;45.900;6.346;2022-10-29T06:06:10;94636.59;;;25.25;38.46
65359;BME280;52491;45.900;6.346;2022-10-29T06:08:35;94641.13;;;25.25;38.62
65359;BME280;52491;45.900;6.346;2022-10-29T06:11:02;94638.44;;;25.25;38.77
65359;BME280;52491;45.900;6.346;2022-10-29T06:13:27;94645.66;;;25.24;38.68
65359;BME280;52491;45.900;6.346;2022-10-29T06:15:56;94648.31;;;25.24;38.32
65359;BME280;52491;45.900;6.346;2022-10-29T06:18:23;94644.03;;;25.23;38.39
65359;BME280;52491;45.900;6.346;2022-10-29T06:20:48;94649.13;;;25.25;38.23
65359;BME280;52491;45.900;6.346;2022-10-29T06:23:14;94644.84;;;25.23;38.58
65359;BME280;52491;45.900;6.346;2022-10-29T06:25:39;94637.88;;;25.22;38.64
65359;BME280;52491;45.900;6.346;2022-10-29T06:28:10;94641.34;;;25.23;38.27
65359;BME280;52491;45.900;6.346;2022-10-29T06:30:36;94650.19;;;25.23;38.79
65359;BME280;52491;45.900;6.346;2022-10-29T06:33:03;94646.69;;;25.23;38.72
65359;BME280;52491;45.900;6.346;2022-10-29T06:35:29;94645.91;;;25.22;38.53
65359;BME280;52491;45.900;6.346;2022-10-29T06:37:55;94651.22;;;25.22;38.42
65359;BME280;52491;45.900;6.346;2022-10-29T06:40:21;94639.75;;;25.22;38.48
65359;BME280;52491;45.900;6.346;2022-10-29T06:42:46;94643.00;;;25.24;38.58
65359;BME280;52491;45.900;6.346;2022-10-29T06:45:12;94639.75;;;25.22;38.78
65359;BME280;52491;45.900;6.346;2022-10-29T06:47:42;94643.78;;;25.25;38.64
65359;BME280;52491;45.900;6.346;2022-10-29T06:50:10;94650.19;;;25.23;38.34
65359;BME280;52491;45.900;6.346;2022-10-29T06:52:36;94644.84;;;25.23;38.28
65359;BME280;52491;45.900;6.346;2022-10-29T06:55:03;94644.59;;;25.25;38.57
65359;BME280;52491;45.900;6.346;2022-10-29T06:57:30;94647.53;;;25.23;38.69
65359;BME280;52491;45.900;6.346;2022-10-29T06:59:55;94645.91;;;25.22;38.44
65359;BME280;52491;45.900;6.346;2022-10-29T07:02:21;94649.13;;;25.25;38.52
65359;BME280;52491;45.900;6.346;2022-10-29T07:04:47;94647.53;;;25.23;38.61
65359;BME280;52491;45.900;6.346;2022-10-29T07:07:13;94655.53;;;25.23;38.32
65359;BME280;52491;45.900;6.346;2022-10-29T07:09:39;94649.63;;;25.21;38.74
65359;BME280;52491;45.900;6.346;2022-10-29T07:12:05;94646.16;;;25.21;38.70
65359;BME280;52491;45.900;6.346;2022-10-29T07:14:31;94649.06;;;25.19;38.35
65359;BME280;52491;45.900;6.346;2022-10-29T07:16:56;94649.88;;;25.20;38.85
65359;BME280;52491;45.900;6.346;2022-10-29T07:19:22;94660.53;;;25.20;38.76
65359;BME280;52491;45.900;6.346;2022-10-29T07:21:48;94658.66;;;25.20;38.36
65359;BME280;52491;45.900;6.346;2022-10-29T07:24:13;94660.53;;;25.20;38.48
65359;BME280;52491;45.900;6.346;2022-10-29T07:26:43;94667.50;;;25.21;38.65
65359;BME280;52491;45.900;6.346;2022-10-29T07:29:10;94658.44;;;25.22;38.30
65359;BME280;52491;45.900;6.346;2022-10-29T07:31:38;94661.34;;;25.20;38.73
65359;BME280;52491;45.900;6.346;2022-10-29T07:34:05;94666.44;;;25.22;38.78
65359;BME280;52491;45.900;6.346;2022-10-29T07:36:31;94668.31;;;25.21;38.73
65359;BME280;52491;45.900;6.346;2022-10-29T07:38:58;94673.66;;;25.21;38.87
65359;BME280;52491;45.900;6.346;2022-10-29T07:41:25;94672.59;;;25.22;38.42
65359;BME280;52491;45.900;6.346;2022-10-29T07:43:51;94670.19;;;25.21;38.53
65359;BME280;52491;45.900;6.346;2022-10-29T07:46:16;94672.84;;;25.21;38.76
65359;BME280;52491;45.900;6.346;2022-10-29T07:48:42;94669.59;;;25.19;38.73
65359;BME280;52491;45.900;6.346;2022-10-29T07:51:08;94675.75;;;25.19;38.73
65359;BME280;52491;45.900;6.346;2022-10-29T07:53:33;94667.75;;;25.19;38.45
65359;BME280;52491;45.900;6.346;2022-10-29T07:55:59;94668.31;;;25.21;38.36
65359;BME280;52491;45.900;6.346;2022-10-29T07:58:25;94666.69;;;25.20;38.64
65359;BME280;52491;45.900;6.346;2022-10-29T08:00:51;94670.19;;;25.21;38.46
65359;BME280;52491;45.900;6.346;2022-10-29T08:03:17;94662.97;;;25.21;38.89
65359;BME280;52491;45.900;6.346;2022-10-29T08:05:43;94669.91;;;25.22;38.41
65359;BME280;52491;45.900;6.346;2022-10-29T08:08:10;94667.25;;;25.22;38.45
65359;BME280;52491;45.900;6.346;2022-10-29T08:10:35;94670.19;;;25.21;38.87
65359;BME280;52491;45.900;6.346;2022-10-29T08:13:03;94669.34;;;25.20;38.52
65359;BME280;52491;45.900;6.346;2022-10-29T08:15:30;94670.72;;;25.23;38.44
65359;BME280;52491;45.900;6.346;2022-10-29T08:17:59;94671.78;;;25.22;38.70
65359;BME280;52491;45.900;6.346;2022-10-29T08:20:27;94668.88;;;25.23;38.64
65359;BME280;52491;45.900;6.346;2022-10-29T08:22:53;94669.69;;;25.24;38.66
65359;BME280;52491;45.900;6.346;2022-10-29T08:25:18;94658.19;;;25.23;38.96
65359;BME280;52491;45.900;6.346;2022-10-29T08:27:44;94656.06;;;25.26;38.38
65359;BME280;52491;45.900;6.346;2022-10-29T08:30:12;94665.72;;;25.27;38.79
65359;BME280;52491;45.900;6.346;2022-10-29T08:32:44;94656.88;;;25.26;38.55
65359;BME280;52491;45.900;6.346;2022-10-29T08:35:11;94661.16;;;25.27;38.79
65359;BME280;52491;45.900;6.346;2022-10-29T08:37:41;94659.53;;;25.26;38.62
65359;BME280;52491;45.900;6.346;2022-10-29T08:45:50;94658.13;;;25.18;38.81
65359;BME280;52491;45.900;6.346;2022-10-29T08:50:57;94653.50;;;25.14;38.20
65359;BME280;52491;45.900;6.346;2022-10-29T08:53:37;94650.03;;;25.13;38.19
65359;BME280;52491;45.900;6.346;2022-10-29T08:56:12;94653.75;;;25.12;38.55
65359;BME280;52491;45.900;6.346;2022-10-29T08:58:57;94646.56;;;25.13;38.33
65359;BME280;52491;45.900;6.346;2022-10-29T09:01:26;94645.19;;;25.10;38.63
65359;BME280;52491;45.900;6.346;2022-10-29T09:03:53;94649.22;;;25.13;38.26
65359;BME280;52491;45.900;6.346;2022-10-29T09:06:38;94642.03;;;25.13;38.67
65359;BME280;52491;45.900;6.346;2022-10-29T09:09:30;94649.22;;;25.13;38.75
65359;BME280;52491;45.900;6.346;2022-10-29T09:20:25;94630.31;;;25.14;38.76
65359;BME280;52491;45.900;6.346;2022-10-29T09:23:18;94630.88;;;25.16;38.78
65359;BME280;52491;45.900;6.346;2022-10-29T09:26:01;94629.28;;;25.15;38.67
65359;BME280;52491;45.900;6.346;2022-10-29T09:33:47;94625.94;;;25.08;38.29
65359;BME280;52491;45.900;6.346;2022-10-29T09:36:18;94624.88;;;25.09;38.75
65359;BME280;52491;45.900;6.346;2022-10-29T09:38:58;94622.78;;;25.11;38.49
65359;BME280;52491;45.900;6.346;2022-10-29T09:41:32;94622.78;;;25.11;38.72
65359;BME280;52491;45.900;6.346;2022-10-29T09:46:46;94615.59;;;25.12;38.50
65359;BME280;52491;45.900;6.346;2022-10-29T09:52:22;94603.53;;;25.09;38.89
65359;BME280;52491;45.900;6.346;2022-10-29T09:54:50;94605.75;;;25.12;39.22
65359;BME280;52491;45.900;6.346;2022-10-29T09:57:22;94604.44;;;25.15;39.05
65359;BME280;52491;45.900;6.346;2022-10-29T10:00:05;94602.59;;;25.15;38.95
65359;BME280;52491;45.900;6.346;2022-10-29T10:02:37;94606.88;;;25.16;38.76
65359;BME280;52491;45.900;6.346;2022-10-29T10:05:08;94600.47;;;25.17;39.09
65359;BME280;52491;45.900;6.346;2022-10-29T10:07:40;94604.75;;;25.18;38.64
65359;BME280;52491;45.900;6.346;2022-10-29T10:10:28;94599.44;;;25.18;38.97
65359;BME280;52491;45.900;6.346;2022-10-29T10:13:02;94600.22;;;25.19;38.83
65359;BME280;52491;45.900;6.346;2022-10-29T10:15:36;94601.03;;;25.19;39.01
65359;BME280;52491;45.900;6.346;2022-10-29T10:21:12;94600.53;;;25.22;39.06
65359;BME280;52491;45.900;6.346;2022-10-29T10:23:49;94600.53;;;25.22;38.55
65359;BME280;52491;45.900;6.346;2022-10-29T10:26:41;94590.63;;;25.18;38.52
65359;BME280;52491;45.900;6.346;2022-10-29T10:29:18;94590.06;;;25.16;38.72
65359;BME280;52491;45.900;6.346;2022-10-29T10:57:39;94559.50;;;23.11;41.71
65359;BME280;52491;45.900;6.346;2022-10-29T11:08:07;94540.16;;;23.32;41.65
65359;BME280;52491;45.900;6.346;2022-10-29T11:10:51;94539.97;;;23.67;41.23
65359;BME280;52491;45.900;6.346;2022-10-29T11:13:22;94530.88;;;23.97;41.11
65359;BME280;52491;45.900;6.346;2022-10-29T11:18:50;94515.75;;;24.42;40.44
65359;BME280;52491;45.900;6.346;2022-10-29T11:21:23;94522.94;;;24.58;40.20
65359;BME280;52491;45.900;6.346;2022-10-29T11:24:08;94516.16;;;24.72;39.96
65359;BME280;52491;45.900;6.346;2022-10-29T11:26:45;94514.44;;;24.83;39.86
65359;BME280;52491;45.900;6.346;2022-10-29T11:29:36;94512.13;;;24.92;39.66
65359;BME280;52491;45.900;6.346;2022-10-29T11:37:46;94492.69;;;25.18;39.35
65359;BME280;52491;45.900;6.346;2022-10-29T11:40:39;94495.41;;;25.23;39.33
65359;BME280;52491;45.900;6.346;2022-10-29T11:43:13;94495.69;;;25.27;39.50
65359;BME280;52491;45.900;6.346;2022-10-29T11:46:02;94489.81;;;25.25;39.38
65359;BME280;52491;45.900;6.346;2022-10-29T11:48:38;94494.19;;;25.36;39.12
65359;BME280;52491;45.900;6.346;2022-10-29T11:56:57;94483.31;;;25.48;38.88
65359;BME280;52491;45.900;6.346;2022-10-29T12:08:01;94478.84;;;25.54;39.25
65359;BME280;52491;45.900;6.346;2022-10-29T12:13:13;94475.91;;;25.55;38.50
65359;BME280;52491;45.900;6.346;2022-10-29T12:18:34;94470.31;;;25.57;38.34
65359;BME280;52491;45.900;6.346;2022-10-29T12:21:12;94467.13;;;25.60;38.43
65359;BME280;52491;45.900;6.346;2022-10-29T12:26:42;94453.53;;;25.61;38.32
65359;BME280;52491;45.900;6.346;2022-10-29T12:32:19;94458.88;;;25.61;38.23
65359;BME280;52491;45.900;6.346;2022-10-29T12:34:58;94460.47;;;25.62;38.13
65359;BME280;52491;45.900;6.346;2022-10-29T12:40:20;94454.94;;;25.69;38.14
65359;BME280;52491;45.900;6.346;2022-10-29T12:42:48;94453.84;;;25.70;38.60
65359;BME280;52491;45.900;6.346;2022-10-29T12:50:43;94449.88;;;25.73;38.36
65359;BME280;52491;45.900;6.346;2022-10-29T12:53:21;94451.22;;;25.75;38.58
65359;BME280;52491;45.900;6.346;2022-10-29T12:55:51;94451.22;;;25.75;38.75
65359;BME280;52491;45.900;6.346;2022-10-29T12:58:43;94445.66;;;25.77;38.34
65359;BME280;52491;45.900;6.346;2022-10-29T13:09:39;94439.78;;;25.80;38.49
65359;BME280;52491;45.900;6.346;2022-10-29T13:12:10;94434.97;;;25.82;38.75
65359;BME280;52491;45.900;6.346;2022-10-29T13:14:47;94441.63;;;25.79;38.67
65359;BME280;52491;45.900;6.346;2022-10-29T13:17:36;94441.38;;;25.81;38.32
65359;BME280;52491;45.900;6.346;2022-10-29T13:20:20;94436.03;;;25.81;38.22
65359;BME280;52491;45.900;6.346;2022-10-29T13:22:56;94435.25;;;25.80;38.18
65359;BME280;52491;45.900;6.346;2022-10-29T13:30:36;94435.75;;;25.77;38.12
65359;BME280;52491;45.900;6.346;2022-10-29T13:41:26;94431.19;;;25.73;38.09
65359;BME280;52491;45.900;6.346;2022-10-29T13:43:59;94433.06;;;25.72;38.42
65359;BME280;52491;45.900;6.346;2022-10-29T13:57:55;94439.13;;;25.62;38.37
65359;BME280;52491;45.900;6.346;2022-10-29T14:00:23;94432.16;;;25.61;38.57
65359;BME280;52491;45.900;6.346;2022-10-29T14:02:55;94444.44;;;25.62;38.58
65359;BME280;52491;45.900;6.346;2022-10-29T14:07:59;94439.13;;;25.62;38.57
65359;BME280;52491;45.900;6.346;2022-10-29T14:10:30;94443.66;;;25.62;38.60
65359;BME280;52491;45.900;6.346;2022-10-29T14:16:08;94437.50;;;25.61;38.88
65359;BME280;52491;45.900;6.346;2022-10-29T14:18:40;94431.63;;;25.59;39.21
65359;BME280;52491;45.900;6.346;2022-10-29T14:21:20;94443.38;;;25.58;39.34
65359;BME280;52491;45.900;6.346;2022-10-29T14:24:06;94446.03;;;25.58;39.23
65359;BME280;52491;45.900;6.346;2022-10-29T14:26:33;94444.44;;;25.57;39.10
65359;BME280;52491;45.900;6.346;2022-10-29T14:31:42;94443.88;;;25.55;39.28
65359;BME280;52491;45.900;6.346;2022-10-29T14:34:22;94447.63;;;25.59;39.02
65359;BME280;52491;45.900;6.346;2022-10-29T14:36:53;94447.94;;;25.63;39.30
65359;BME280;52491;45.900;6.346;2022-10-29T14:42:00;94453.56;;;25.66;39.34
65359;BME280;52491;45.900;6.346;2022-10-29T14:44:28;94447.72;;;25.70;39.01
65359;BME280;52491;45.900;6.346;2022-10-29T14:47:07;94449.31;;;25.71;39.48
65359;BME280;52491;45.900;6.346;2022-10-29T14:49:44;94449.31;;;25.71;39.27
65359;BME280;52491;45.900;6.346;2022-10-29T14:52:32;94439.47;;;25.71;39.01
65359;BME280;52491;45.900;6.346;2022-10-29T14:55:05;94452.31;;;25.74;39.46
65359;BME280;52491;45.900;6.346;2022-10-29T14:57:37;94449.88;;;25.73;39.26
65359;BME280;52491;45.900;6.346;2022-10-29T15:00:05;94443.97;;;25.71;39.48
65359;BME280;52491;45.900;6.346;2022-10-29T15:02:38;94442.91;;;25.66;39.64
65359;BME280;52491;45.900;6.346;2022-10-29T15:05:31;94447.13;;;25.62;40.27
65359;BME280;52491;45.900;6.346;2022-10-29T15:10:52;94444.94;;;25.54;40.39
65359;BME280;52491;45.900;6.346;2022-10-29T15:16:07;94451.34;;;25.53;40.58
65359;BME280;52491;45.900;6.346;2022-10-29T15:18:34;94454.56;;;25.55;40.62
65359;BME280;52491;45.900;6.346;2022-10-29T15:21:02;94450.81;;;25.56;40.33
65359;BME280;52491;45.900;6.346;2022-10-29T15:23:33;94454.28;;;25.57;40.68
65359;BME280;52491;45.900;6.346;2022-10-29T15:26:02;94447.09;;;25.57;40.55
65359;BME280;52491;45.900;6.346;2022-10-29T15:28:43;94458.28;;;25.54;40.45
65359;BME280;52491;45.900;6.346;2022-10-29T15:31:39;94457.19;;;25.50;40.75
65359;BME280;52491;45.900;6.346;2022-10-29T15:34:09;94451.28;;;25.48;40.74
65359;BME280;52491;45.900;6.346;2022-10-29T15:36:50;94457.94;;;25.45;40.88
65359;BME280;52491;45.900;6.346;2022-10-29T15:39:35;94455.53;;;25.44;41.23
65359;BME280;52491;45.900;6.346;2022-10-29T15:42:20;94455.50;;;25.39;40.80
65359;BME280;52491;45.900;6.346;2022-10-29T15:47:35;94456.56;;;25.38;40.65
65359;BME280;52491;45.900;6.346;2022-10-29T15:50:02;94455.44;;;25.34;41.09
65359;BME280;52491;45.900;6.346;2022-10-29T15:52:42;94456.22;;;25.29;40.90
65359;BME280;52491;45.900;6.346;2022-10-29T15:55:24;94465.03;;;25.30;41.05
65359;BME280;52491;45.900;6.346;2022-10-29T15:57:50;94457.56;;;25.32;40.88
65359;BME280;52491;45.900;6.346;2022-10-29T16:00:21;94462.94;;;25.37;41.20
65359;BME280;52491;45.900;6.346;2022-10-29T16:02:47;94459.75;;;25.40;40.68
65359;BME280;52491;45.900;6.346;2022-10-29T16:05:13;94459.53;;;25.41;40.72
65359;BME280;52491;45.900;6.346;2022-10-29T16:07:40;94457.16;;;25.45;40.94
65359;BME280;52491;45.900;6.346;2022-10-29T16:10:13;94456.59;;;25.43;40.74
65359;BME280;52491;45.900;6.346;2022-10-29T16:12:39;94460.84;;;25.39;40.87
65359;BME280;52491;45.900;6.346;2022-10-29T16:15:05;94463.22;;;25.35;40.60
65359;BME280;52491;45.900;6.346;2022-10-29T16:17:33;94461.91;;;25.38;40.65
65359;BME280;52491;45.900;6.346;2022-10-29T16:19:59;94456.28;;;25.39;40.70